createdAt,value
2022-11-17T00:05:01.050Z,8.7
2022-11-17T00:10:03.840Z,8.6
2022-11-17T00:15:05.953Z,8.6
2022-11-17T00:20:08.113Z,8.6
2022-11-17T00:25:11.417Z,8.7
2022-11-17T00:30:13.398Z,8.8
2022-11-17T00:35:20.458Z,8.8
2022-11-17T00:40:22.532Z,8.8
2022-11-17T00:45:24.591Z,8.8
2022-11-17T00:50:26.774Z,8.8
2022-11-17T00:55:29.411Z,8.8
2022-11-17T01:00:31.611Z,8.8
2022-11-17T01:05:35.177Z,8.7
2022-11-17T01:10:37.256Z,8.7
2022-11-17T01:15:39.462Z,8.7
2022-11-17T01:20:41.574Z,8.7
2022-11-17T01:25:43.622Z,8.7
2022-11-17T01:30:45.590Z,8.7
2022-11-17T01:35:47.590Z,8.7
2022-11-17T01:40:49.724Z,8.7
2022-11-17T01:45:51.768Z,8.7
2022-11-17T01:50:53.736Z,8.7
2022-11-17T01:55:55.742Z,8.6
2022-11-17T02:00:58.024Z,8.7
2022-11-17T02:06:00.018Z,8.6
2022-11-17T02:11:01.984Z,8.6
2022-11-17T02:16:04.058Z,8.6
2022-11-17T02:21:06.049Z,8.5
2022-11-17T02:26:10.873Z,8.5
2022-11-17T02:31:12.979Z,8.5
2022-11-17T02:36:15.054Z,8.4
2022-11-17T02:41:17.189Z,8.5
2022-11-17T02:46:19.300Z,8.4
2022-11-17T02:51:21.549Z,8.4
2022-11-17T02:56:23.515Z,8.4
2022-11-17T03:01:26.124Z,8.3
2022-11-17T03:06:28.332Z,8.2
2022-11-17T03:16:31.542Z,8.3
2022-11-17T03:21:33.537Z,8.3
2022-11-17T03:26:35.599Z,8.3
2022-11-17T03:31:37.860Z,8.3
2022-11-17T03:36:40.089Z,8.3
2022-11-17T03:46:42.924Z,8.3
2022-11-17T03:51:44.973Z,8.3
2022-11-17T03:56:47.014Z,8.3
2022-11-17T04:01:49.258Z,8.3
2022-11-17T04:06:51.765Z,8.3
2022-11-17T04:11:53.889Z,8.2
2022-11-17T04:16:56.014Z,8.3
2022-11-17T04:21:58.027Z,8.3
2022-11-17T04:27:00.140Z,8.2
2022-11-17T04:32:02.347Z,8.2
2022-11-17T04:37:10.054Z,8.2
2022-11-17T04:42:12.229Z,8.2
2022-11-17T04:47:14.410Z,8.1
2022-11-17T04:52:16.470Z,8.1
2022-11-17T04:57:18.537Z,8.1
2022-11-17T05:02:20.855Z,8
2022-11-17T05:07:23.476Z,7.9
2022-11-17T05:12:25.890Z,7.9
2022-11-17T05:17:27.898Z,8
2022-11-17T05:22:29.944Z,7.9
2022-11-17T05:27:31.932Z,7.9
2022-11-17T05:32:33.987Z,7.8
2022-11-17T05:37:36.038Z,7.8
2022-11-17T05:42:38.456Z,7.8
2022-11-17T05:47:40.562Z,7.8
2022-11-17T05:52:42.745Z,7.7
2022-11-17T05:57:44.813Z,7.7
2022-11-17T06:02:46.834Z,7.7
2022-11-17T06:07:48.766Z,7.7
2022-11-17T06:12:50.773Z,7.7
2022-11-17T06:17:52.683Z,7.8
2022-11-17T06:22:54.664Z,7.8
2022-11-17T06:27:56.691Z,7.8
2022-11-17T06:32:58.807Z,7.8
2022-11-17T06:38:00.846Z,7.9
2022-11-17T06:43:03.528Z,7.9
2022-11-17T06:48:05.578Z,7.9
2022-11-17T06:53:07.699Z,7.9
2022-11-17T06:58:09.975Z,8
2022-11-17T07:03:12.173Z,8.1
2022-11-17T07:08:14.629Z,7.7
2022-11-17T07:13:16.847Z,7.8
2022-11-17T07:18:19.230Z,7.9
2022-11-17T07:23:21.407Z,7.9
2022-11-17T07:28:23.800Z,8.2
2022-11-17T07:33:26.044Z,8.2
2022-11-17T07:38:28.250Z,8.4
2022-11-17T07:43:30.713Z,8.6
2022-11-17T07:48:33.647Z,9.4
2022-11-17T07:53:36.825Z,9.3
2022-11-17T07:58:41.383Z,16
2022-11-17T08:03:44.182Z,13.5
2022-11-17T08:08:46.453Z,13.4
2022-11-17T08:13:48.765Z,11.3
2022-11-17T08:18:54.704Z,9.2
2022-11-17T08:23:57.285Z,9
2022-11-17T08:29:00.955Z,9.4
2022-11-17T08:34:03.300Z,9.4
2022-11-17T08:39:05.472Z,9.3
2022-11-17T08:44:07.911Z,9.4
2022-11-17T08:49:13.882Z,9.3
2022-11-17T08:54:16.188Z,9.3
2022-11-17T08:59:18.404Z,9.6
2022-11-17T09:04:20.672Z,9.6
2022-11-17T09:09:22.941Z,10.4
2022-11-17T09:14:25.491Z,10.6
2022-11-17T09:19:27.588Z,10.5
2022-11-17T09:24:29.773Z,13.4
2022-11-17T09:29:31.853Z,14.7
2022-11-17T09:34:33.991Z,12.4
2022-11-17T09:39:36.202Z,11.6
2022-11-17T09:44:38.729Z,11.3
2022-11-17T09:49:40.800Z,11.6
2022-11-17T09:54:44.344Z,14.2
2022-11-17T09:59:46.493Z,14.2
2022-11-17T10:04:48.642Z,14.7
2022-11-17T10:09:50.760Z,15.2
2022-11-17T10:14:52.870Z,14.8
2022-11-17T10:19:55.101Z,15
2022-11-17T10:24:57.514Z,14.1
2022-11-17T10:29:59.567Z,13.7
2022-11-17T10:35:02.261Z,14.5
2022-11-17T10:40:05.453Z,18.3
2022-11-17T10:45:08.074Z,18.2
2022-11-17T10:50:10.297Z,22.4
2022-11-17T10:55:12.651Z,22.4
2022-11-17T11:00:14.783Z,23.8
2022-11-17T11:05:17.000Z,25.5
2022-11-17T11:10:19.607Z,20.7
2022-11-17T11:15:22.147Z,18.7
2022-11-17T11:20:24.180Z,18.5
2022-11-17T11:25:26.708Z,18.5
2022-11-17T11:30:28.832Z,18.5
2022-11-17T11:35:30.941Z,18.1
2022-11-17T11:40:33.092Z,18.6
2022-11-17T11:45:35.387Z,17.6
2022-11-17T11:50:43.490Z,16.1
2022-11-17T11:55:45.624Z,16.1
2022-11-17T12:00:48.043Z,16.8
2022-11-17T12:05:50.125Z,17.1
2022-11-17T12:10:52.202Z,17
2022-11-17T12:15:54.282Z,16.1
2022-11-17T12:20:56.377Z,14.8
2022-11-17T12:26:01.017Z,14.1
2022-11-17T12:31:11.625Z,14.9
2022-11-17T12:36:03.749Z,14.9
2022-11-17T12:41:06.007Z,14.2
2022-11-17T12:46:08.218Z,14.2
2022-11-17T12:51:10.799Z,14.9
2022-11-17T12:56:13.233Z,14.8
2022-11-17T13:01:15.486Z,15.5
2022-11-17T13:06:47.942Z,18.4
2022-11-17T13:11:19.996Z,18.3
2022-11-17T13:16:22.391Z,16.9
2022-11-17T13:21:24.486Z,14.7
2022-11-17T13:26:26.535Z,13.5
2022-11-17T13:31:28.665Z,13
2022-11-17T13:36:30.773Z,12.6
2022-11-17T13:41:32.959Z,12.3
2022-11-17T13:46:35.748Z,12.8
2022-11-17T13:51:37.993Z,13.4
2022-11-17T13:56:40.645Z,13.5
2022-11-17T14:01:43.261Z,13.3
2022-11-17T14:06:45.959Z,12.8
2022-11-17T14:11:48.132Z,12.8
2022-11-17T14:16:50.891Z,11.7
2022-11-17T14:21:53.546Z,11.4
2022-11-17T14:26:56.164Z,11.3
2022-11-17T14:31:58.376Z,11.2
2022-11-17T14:37:00.467Z,11.1
2022-11-17T14:42:02.989Z,11.1
2022-11-17T14:47:05.440Z,11.1
2022-11-17T14:52:07.626Z,11.1
2022-11-17T14:57:09.780Z,11
2022-11-17T15:02:12.129Z,10.9
2022-11-17T15:07:14.606Z,10.8
2022-11-17T15:12:16.768Z,10.8
2022-11-17T15:17:18.929Z,10.7
2022-11-17T15:22:21.057Z,10.6
2022-11-17T15:27:23.555Z,10.5
2022-11-17T15:32:25.665Z,10.4
2022-11-17T15:37:27.790Z,10.4
2022-11-17T15:42:30.551Z,10.2
2022-11-17T15:47:33.769Z,10.2
2022-11-17T15:53:06.176Z,10.2
2022-11-17T15:57:38.935Z,10.1
2022-11-17T16:02:41.031Z,10.1
2022-11-17T16:07:43.538Z,10
2022-11-17T16:12:45.592Z,9.9
2022-11-17T16:17:47.929Z,9.9
2022-11-17T16:22:50.102Z,9.8
2022-11-17T16:27:52.304Z,9.7
2022-11-17T16:32:54.394Z,9.6
2022-11-17T16:37:57.153Z,9.5
2022-11-17T16:42:59.206Z,9.4
2022-11-17T16:48:01.548Z,9.4
2022-11-17T16:53:04.976Z,9.4
2022-11-17T16:58:07.515Z,9.4
2022-11-17T17:03:10.021Z,9.4
2022-11-17T17:08:12.188Z,9.3
2022-11-17T17:13:14.429Z,9.4
2022-11-17T17:18:17.028Z,9.3
2022-11-17T17:23:19.083Z,9.3
2022-11-17T17:28:21.670Z,9.2
2022-11-17T17:33:23.864Z,9.2
2022-11-17T17:38:26.114Z,9.1
2022-11-17T17:43:28.254Z,9.1
2022-11-17T17:48:30.774Z,9.2
2022-11-17T17:53:32.831Z,9.2
2022-11-17T17:58:34.971Z,9.3
2022-11-17T18:03:37.613Z,9.4
2022-11-17T18:08:40.125Z,9.4
2022-11-17T18:13:42.184Z,9.5
2022-11-17T18:18:44.338Z,9.5
2022-11-17T18:23:46.487Z,9.4
2022-11-17T18:28:48.569Z,9.4
2022-11-17T18:33:50.853Z,9.3
2022-11-17T18:38:52.951Z,9.4
2022-11-17T18:43:55.190Z,9.3
2022-11-17T18:48:57.549Z,9.3
2022-11-17T18:54:00.591Z,9.3
2022-11-17T18:59:02.811Z,9.3
2022-11-17T19:04:05.306Z,9.3
2022-11-17T19:09:10.084Z,9.2
2022-11-17T19:14:12.339Z,9.2
2022-11-17T19:19:16.762Z,9.1
2022-11-17T19:24:19.407Z,9.1
2022-11-17T19:29:22.734Z,9
2022-11-17T19:34:25.827Z,9
2022-11-17T19:39:28.022Z,9
2022-11-17T19:44:31.077Z,9
2022-11-17T19:49:33.971Z,9
2022-11-17T19:54:36.058Z,9
2022-11-17T19:59:38.490Z,9
2022-11-17T20:04:40.640Z,9.1
2022-11-17T20:09:42.708Z,9.1
2022-11-17T20:14:44.971Z,9.1
2022-11-17T20:19:47.125Z,9.1
2022-11-17T20:24:49.640Z,9.1
2022-11-17T20:29:51.810Z,9.1
2022-11-17T20:34:54.371Z,9.1
2022-11-17T20:39:56.977Z,9
2022-11-17T20:44:59.418Z,9
2022-11-17T20:50:02.150Z,9
2022-11-17T20:55:06.429Z,9
2022-11-17T21:00:16.312Z,8.9
2022-11-17T21:05:18.098Z,8.9
2022-11-17T21:10:24.222Z,8.8
2022-11-17T21:15:27.619Z,8.8
2022-11-17T21:20:38.785Z,8.8
2022-11-17T21:25:33.360Z,8.8
2022-11-17T21:30:51.040Z,8.8
2022-11-17T21:35:46.784Z,8.8
2022-11-17T21:40:55.679Z,8.7
2022-11-17T21:46:00.897Z,8.7
2022-11-17T21:51:03.994Z,8.8
2022-11-17T21:56:06.433Z,8.7
2022-11-17T22:01:09.219Z,8.6
2022-11-17T22:06:11.561Z,8.6
2022-11-17T22:11:13.672Z,8.7
2022-11-17T22:16:15.884Z,8.6
2022-11-17T22:21:17.988Z,8.6
2022-11-17T22:26:20.554Z,8.6
2022-11-17T22:31:22.687Z,8.6
2022-11-17T22:36:24.814Z,8.6
2022-11-17T22:41:27.008Z,8.6
2022-11-17T22:46:29.213Z,8.6
2022-11-17T22:51:31.663Z,8.5
2022-11-17T22:56:33.905Z,8.5
2022-11-17T23:01:36.380Z,8.5
2022-11-17T23:11:40.878Z,8.4
2022-11-17T23:16:43.034Z,8.4
2022-11-17T23:21:45.172Z,8.4
2022-11-17T23:26:48.496Z,8.3
2022-11-17T23:31:50.679Z,8.3
2022-11-17T23:36:52.889Z,8.2
2022-11-17T23:41:55.070Z,8.2
2022-11-17T23:46:57.264Z,8.1
2022-11-17T23:51:59.466Z,8.1
2022-11-17T23:57:01.682Z,8
